sensor_id;sensor_type;location;lat;lon;timestamp;temperature;humidity
47604;DHT22;33326;51.116;6.900;2022-11-20T00:14:51;6.00;99.90
47604;DHT22;33326;51.116;6.900;2022-11-20T00:21:09;5.90;99.90
47604;DHT22;33326;51.116;6.900;2022-11-20T00:27:16;6.00;99.90
47604;DHT22;33326;51.116;6.900;2022-11-20T01:55:54;5.90;99.90
47604;DHT22;33326;51.116;6.900;2022-11-20T03:28:59;5.20;99.90
47604;DHT22;33326;51.116;6.900;2022-11-20T03:34:02;5.20;99.90
47604;DHT22;33326;51.116;6.900;2022-11-20T03:39:04;5.20;99.90
47604;DHT22;33326;51.116;6.900;2022-11-20T03:44:09;5.30;99.90
47604;DHT22;33326;51.116;6.900;2022-11-20T03:49:10;5.40;99.90
47604;DHT22;33326;51.116;6.900;2022-11-20T03:54:12;5.40;99.90
47604;DHT22;33326;51.116;6.900;2022-11-20T03:59:16;5.50;99.90
47604;DHT22;33326;51.116;6.900;2022-11-20T04:04:18;5.50;99.90
47604;DHT22;33326;51.116;6.900;2022-11-20T04:09:19;5.50;99.90
47604;DHT22;33326;51.116;6.900;2022-11-20T04:14:23;5.50;99.90
47604;DHT22;33326;51.116;6.900;2022-11-20T04:19:24;5.50;99.90
47604;DHT22;33326;51.116;6.900;2022-11-20T04:24:26;5.40;99.90
47604;DHT22;33326;51.116;6.900;2022-11-20T04:29:29;5.50;99.90
47604;DHT22;33326;51.116;6.900;2022-11-20T04:34:31;5.50;99.90
47604;DHT22;33326;51.116;6.900;2022-11-20T04:39:33;5.50;99.90
47604;DHT22;33326;51.116;6.900;2022-11-20T04:44:36;5.50;99.90
47604;DHT22;33326;51.116;6.900;2022-11-20T04:49:38;5.60;99.90
47604;DHT22;33326;51.116;6.900;2022-11-20T04:54:39;5.60;99.90
47604;DHT22;33326;51.116;6.900;2022-11-20T04:59:43;5.60;99.90
47604;DHT22;33326;51.116;6.900;2022-11-20T05:04:44;5.50;99.90
47604;DHT22;33326;51.116;6.900;2022-11-20T05:09:46;5.40;99.90
47604;DHT22;33326;51.116;6.900;2022-11-20T05:14:49;5.30;99.90
47604;DHT22;33326;51.116;6.900;2022-11-20T05:19:51;5.40;99.90
47604;DHT22;33326;51.116;6.900;2022-11-20T05:24:53;5.30;99.90
47604;DHT22;33326;51.116;6.900;2022-11-20T05:29:56;5.20;99.90
47604;DHT22;33326;51.116;6.900;2022-11-20T05:34:58;5.20;99.90
47604;DHT22;33326;51.116;6.900;2022-11-20T05:39:59;5.30;99.90
47604;DHT22;33326;51.116;6.900;2022-11-20T05:45:04;5.40;99.90
47604;DHT22;33326;51.116;6.900;2022-11-20T05:50:06;5.40;99.90
47604;DHT22;33326;51.116;6.900;2022-11-20T05:55:09;5.20;99.90
47604;DHT22;33326;51.116;6.900;2022-11-20T06:00:13;5.20;99.90
47604;DHT22;33326;51.116;6.900;2022-11-20T06:05:16;5.20;99.90
47604;DHT22;33326;51.116;6.900;2022-11-20T06:10:17;5.20;99.90
47604;DHT22;33326;51.116;6.900;2022-11-20T06:15:20;5.20;99.90
47604;DHT22;33326;51.116;6.900;2022-11-20T06:20:22;5.10;99.90
47604;DHT22;33326;51.116;6.900;2022-11-20T06:25:24;5.10;99.90
47604;DHT22;33326;51.116;6.900;2022-11-20T06:30:27;5.00;99.90
47604;DHT22;33326;51.116;6.900;2022-11-20T06:35:29;4.90;99.90
47604;DHT22;33326;51.116;6.900;2022-11-20T06:40:31;4.80;99.90
47604;DHT22;33326;51.116;6.900;2022-11-20T06:45:34;4.70;99.90
47604;DHT22;33326;51.116;6.900;2022-11-20T06:50:36;4.60;99.90
47604;DHT22;33326;51.116;6.900;2022-11-20T06:55:41;4.50;99.90
47604;DHT22;33326;51.116;6.900;2022-11-20T07:50:42;4.60;99.90
47604;DHT22;33326;51.116;6.900;2022-11-20T07:55:44;4.80;99.90
47604;DHT22;33326;51.116;6.900;2022-11-20T08:00:47;4.90;99.90
47604;DHT22;33326;51.116;6.900;2022-11-20T08:05:49;5.00;99.90
47604;DHT22;33326;51.116;6.900;2022-11-20T08:10:52;5.10;99.90
47604;DHT22;33326;51.116;6.900;2022-11-20T08:16:15;5.30;99.90
47604;DHT22;33326;51.116;6.900;2022-11-20T08:21:17;5.30;99.90
47604;DHT22;33326;51.116;6.900;2022-11-20T08:26:20;5.40;99.90
47604;DHT22;33326;51.116;6.900;2022-11-20T08:31:25;5.50;99.90
47604;DHT22;33326;51.116;6.900;2022-11-20T08:36:27;5.50;99.90
47604;DHT22;33326;51.116;6.900;2022-11-20T08:41:29;5.60;99.90
47604;DHT22;33326;51.116;6.900;2022-11-20T08:46:36;5.70;99.90
47604;DHT22;33326;51.116;6.900;2022-11-20T08:51:39;5.80;99.90
47604;DHT22;33326;51.116;6.900;2022-11-20T08:56:41;5.90;99.90
47604;DHT22;33326;51.116;6.900;2022-11-20T09:01:44;5.80;99.90
47604;DHT22;33326;51.116;6.900;2022-11-20T09:06:46;5.90;99.90
47604;DHT22;33326;51.116;6.900;2022-11-20T09:11:51;6.00;99.90
47604;DHT22;33326;51.116;6.900;2022-11-20T09:16:54;6.00;99.90
47604;DHT22;33326;51.116;6.900;2022-11-20T09:21:56;6.00;99.90
47604;DHT22;33326;51.116;6.900;2022-11-20T09:27:02;6.10;99.90
47604;DHT22;33326;51.116;6.900;2022-11-20T09:32:14;6.00;99.90
47604;DHT22;33326;51.116;6.900;2022-11-20T09:38:19;6.10;99.90
47604;DHT22;33326;51.116;6.900;2022-11-20T09:44:17;6.30;99.90
47604;DHT22;33326;51.116;6.900;2022-11-20T09:50:05;6.60;99.90
47604;DHT22;33326;51.116;6.900;2022-11-20T09:55:57;6.60;99.90
47604;DHT22;33326;51.116;6.900;2022-11-20T10:32:42;6.70;99.90
47604;DHT22;33326;51.116;6.900;2022-11-20T10:37:46;6.70;99.90
47604;DHT22;33326;51.116;6.900;2022-11-20T10:42:51;6.70;99.90
47604;DHT22;33326;51.116;6.900;2022-11-20T10:48:07;6.70;99.90
47604;DHT22;33326;51.116;6.900;2022-11-20T10:53:19;6.80;99.90
47604;DHT22;33326;51.116;6.900;2022-11-20T10:58:33;6.90;99.90
47604;DHT22;33326;51.116;6.900;2022-11-20T11:03:38;7.10;99.90
47604;DHT22;33326;51.116;6.900;2022-11-20T11:08:41;7.00;99.90
47604;DHT22;33326;51.116;6.900;2022-11-20T11:13:44;6.90;99.90
47604;DHT22;33326;51.116;6.900;2022-11-20T11:25:24;7.00;99.90
47604;DHT22;33326;51.116;6.900;2022-11-20T11:30:27;7.00;99.90
47604;DHT22;33326;51.116;6.900;2022-11-20T11:35:30;7.00;99.90
47604;DHT22;33326;51.116;6.900;2022-11-20T11:40:35;7.10;99.90
47604;DHT22;33326;51.116;6.900;2022-11-20T11:45:37;7.10;99.90
47604;DHT22;33326;51.116;6.900;2022-11-20T11:50:48;7.20;99.90
47604;DHT22;33326;51.116;6.900;2022-11-20T11:55:56;7.10;99.90
47604;DHT22;33326;51.116;6.900;2022-11-20T12:01:02;7.10;99.90
47604;DHT22;33326;51.116;6.900;2022-11-20T12:06:08;7.00;99.90
47604;DHT22;33326;51.116;6.900;2022-11-20T12:11:17;7.00;99.90
47604;DHT22;33326;51.116;6.900;2022-11-20T12:16:21;7.10;99.90
47604;DHT22;33326;51.116;6.900;2022-11-20T12:21:31;7.30;99.90
47604;DHT22;33326;51.116;6.900;2022-11-20T12:26:45;7.10;99.90
47604;DHT22;33326;51.116;6.900;2022-11-20T12:37:28;7.30;99.90
47604;DHT22;33326;51.116;6.900;2022-11-20T12:42:50;7.30;99.90
47604;DHT22;33326;51.116;6.900;2022-11-20T12:48:34;7.30;99.90
47604;DHT22;33326;51.116;6.900;2022-11-20T12:53:41;7.20;99.90
47604;DHT22;33326;51.116;6.900;2022-11-20T12:58:56;7.20;99.90
47604;DHT22;33326;51.116;6.900;2022-11-20T13:04:07;7.20;99.90
47604;DHT22;33326;51.116;6.900;2022-11-20T13:09:13;7.20;99.90
47604;DHT22;33326;51.116;6.900;2022-11-20T13:14:33;7.20;99.90
47604;DHT22;33326;51.116;6.900;2022-11-20T13:19:36;7.30;99.90
47604;DHT22;33326;51.116;6.900;2022-11-20T13:24:39;7.30;99.90
47604;DHT22;33326;51.116;6.900;2022-11-20T13:30:14;7.30;99.90
47604;DHT22;33326;51.116;6.900;2022-11-20T13:35:29;7.40;99.90
47604;DHT22;33326;51.116;6.900;2022-11-20T13:40:32;7.40;99.90
47604;DHT22;33326;51.116;6.900;2022-11-20T13:45:36;7.40;99.90
47604;DHT22;33326;51.116;6.900;2022-11-20T13:50:48;7.40;99.90
47604;DHT22;33326;51.116;6.900;2022-11-20T13:55:58;7.50;99.90
47604;DHT22;33326;51.116;6.900;2022-11-20T14:01:09;7.50;99.90
47604;DHT22;33326;51.116;6.900;2022-11-20T14:06:15;7.50;99.90
47604;DHT22;33326;51.116;6.900;2022-11-20T14:11:23;7.50;99.90
47604;DHT22;33326;51.116;6.900;2022-11-20T14:16:30;7.50;99.90
47604;DHT22;33326;51.116;6.900;2022-11-20T14:21:32;7.40;99.90
47604;DHT22;33326;51.116;6.900;2022-11-20T14:26:34;7.40;99.90
47604;DHT22;33326;51.116;6.900;2022-11-20T14:31:38;7.40;99.90
47604;DHT22;33326;51.116;6.900;2022-11-20T14:36:40;7.50;99.90
47604;DHT22;33326;51.116;6.900;2022-11-20T14:41:50;7.50;99.90
47604;DHT22;33326;51.116;6.900;2022-11-20T14:46:55;7.50;99.90
47604;DHT22;33326;51.116;6.900;2022-11-20T14:52:00;7.50;99.90
47604;DHT22;33326;51.116;6.900;2022-11-20T14:57:03;7.40;99.90
47604;DHT22;33326;51.116;6.900;2022-11-20T15:02:09;7.40;99.90
47604;DHT22;33326;51.116;6.900;2022-11-20T15:07:11;7.50;99.90
47604;DHT22;33326;51.116;6.900;2022-11-20T15:12:17;7.40;99.90
47604;DHT22;33326;51.116;6.900;2022-11-20T15:17:20;7.50;99.90
47604;DHT22;33326;51.116;6.900;2022-11-20T15:22:22;7.50;99.90
47604;DHT22;33326;51.116;6.900;2022-11-20T15:27:24;7.50;99.90
47604;DHT22;33326;51.116;6.900;2022-11-20T15:32:27;7.50;99.90
47604;DHT22;33326;51.116;6.900;2022-11-20T15:37:29;7.40;99.90
47604;DHT22;33326;51.116;6.900;2022-11-20T15:42:32;7.40;99.90
47604;DHT22;33326;51.116;6.900;2022-11-20T15:47:35;7.30;99.90
47604;DHT22;33326;51.116;6.900;2022-11-20T15:52:37;7.20;99.90
47604;DHT22;33326;51.116;6.900;2022-11-20T15:57:39;7.10;99.90
47604;DHT22;33326;51.116;6.900;2022-11-20T16:02:42;7.10;99.90
47604;DHT22;33326;51.116;6.900;2022-11-20T16:07:44;7.10;99.90
47604;DHT22;33326;51.116;6.900;2022-11-20T16:12:46;7.10;99.90
47604;DHT22;33326;51.116;6.900;2022-11-20T16:18:08;7.10;99.90
47604;DHT22;33326;51.116;6.900;2022-11-20T16:23:12;7.00;99.90
47604;DHT22;33326;51.116;6.900;2022-11-20T16:28:14;7.10;99.90
47604;DHT22;33326;51.116;6.900;2022-11-20T16:33:17;7.10;99.90
47604;DHT22;33326;51.116;6.900;2022-11-20T16:38:19;7.20;99.90
47604;DHT22;33326;51.116;6.900;2022-11-20T16:43:21;7.20;99.90
47604;DHT22;33326;51.116;6.900;2022-11-20T16:48:24;7.10;99.90
47604;DHT22;33326;51.116;6.900;2022-11-20T16:53:26;7.10;99.90
47604;DHT22;33326;51.116;6.900;2022-11-20T16:58:28;7.10;99.90
47604;DHT22;33326;51.116;6.900;2022-11-20T17:03:32;7.20;99.90
47604;DHT22;33326;51.116;6.900;2022-11-20T17:08:33;7.20;99.90
47604;DHT22;33326;51.116;6.900;2022-11-20T17:13:36;7.20;99.90
47604;DHT22;33326;51.116;6.900;2022-11-20T17:18:40;7.30;99.90
47604;DHT22;33326;51.116;6.900;2022-11-20T17:23:43;7.20;99.90
47604;DHT22;33326;51.116;6.900;2022-11-20T17:28:46;7.20;99.90
47604;DHT22;33326;51.116;6.900;2022-11-20T17:33:49;7.20;99.90
47604;DHT22;33326;51.116;6.900;2022-11-20T17:38:51;7.20;99.90
47604;DHT22;33326;51.116;6.900;2022-11-20T17:43:54;7.20;99.90
47604;DHT22;33326;51.116;6.900;2022-11-20T17:48:57;7.20;99.90
47604;DHT22;33326;51.116;6.900;2022-11-20T17:54:00;7.10;99.90
47604;DHT22;33326;51.116;6.900;2022-11-20T17:59:03;7.20;99.90
47604;DHT22;33326;51.116;6.900;2022-11-20T18:04:07;7.30;99.90
47604;DHT22;33326;51.116;6.900;2022-11-20T18:09:09;7.30;99.90
47604;DHT22;33326;51.116;6.900;2022-11-20T18:14:12;7.30;99.90
47604;DHT22;33326;51.116;6.900;2022-11-20T18:19:34;7.30;99.90
47604;DHT22;33326;51.116;6.900;2022-11-20T18:24:37;7.40;99.90
47604;DHT22;33326;51.116;6.900;2022-11-20T18:29:39;7.40;99.90
47604;DHT22;33326;51.116;6.900;2022-11-20T18:34:42;7.50;99.90
47604;DHT22;33326;51.116;6.900;2022-11-20T18:39:44;7.30;99.90
47604;DHT22;33326;51.116;6.900;2022-11-20T18:44:46;7.40;99.90
47604;DHT22;33326;51.116;6.900;2022-11-20T18:49:57;7.30;99.90
47604;DHT22;33326;51.116;6.900;2022-11-20T18:55:01;7.40;99.90
47604;DHT22;33326;51.116;6.900;2022-11-20T19:00:05;7.40;99.90
47604;DHT22;33326;51.116;6.900;2022-11-20T19:05:08;7.40;99.90
47604;DHT22;33326;51.116;6.900;2022-11-20T19:10:10;7.40;99.90
47604;DHT22;33326;51.116;6.900;2022-11-20T19:15:12;7.50;99.90
47604;DHT22;33326;51.116;6.900;2022-11-20T19:20:15;7.60;99.90
47604;DHT22;33326;51.116;6.900;2022-11-20T19:25:18;7.60;99.90
47604;DHT22;33326;51.116;6.900;2022-11-20T19:30:20;7.80;99.90
47604;DHT22;33326;51.116;6.900;2022-11-20T19:35:23;8.00;99.90
47604;DHT22;33326;51.116;6.900;2022-11-20T19:40:25;8.10;99.90
47604;DHT22;33326;51.116;6.900;2022-11-20T19:45:27;8.20;99.90
47604;DHT22;33326;51.116;6.900;2022-11-20T19:50:30;8.10;99.90
47604;DHT22;33326;51.116;6.900;2022-11-20T19:55:32;8.10;99.90
47604;DHT22;33326;51.116;6.900;2022-11-20T20:00:34;8.20;99.90
47604;DHT22;33326;51.116;6.900;2022-11-20T20:05:37;8.30;99.90
47604;DHT22;33326;51.116;6.900;2022-11-20T20:10:39;8.30;99.90
47604;DHT22;33326;51.116;6.900;2022-11-20T20:15:41;8.30;99.90
47604;DHT22;33326;51.116;6.900;2022-11-20T20:20:44;8.40;99.90
47604;DHT22;33326;51.116;6.900;2022-11-20T20:25:47;8.40;99.90
47604;DHT22;33326;51.116;6.900;2022-11-20T20:30:48;8.50;99.90
47604;DHT22;33326;51.116;6.900;2022-11-20T20:35:52;8.40;99.90
47604;DHT22;33326;51.116;6.900;2022-11-20T20:40:53;8.40;99.90
47604;DHT22;33326;51.116;6.900;2022-11-20T20:45:55;8.40;99.90
47604;DHT22;33326;51.116;6.900;2022-11-20T20:50:59;8.40;99.90
47604;DHT22;33326;51.116;6.900;2022-11-20T20:56:02;8.40;99.90
47604;DHT22;33326;51.116;6.900;2022-11-20T21:01:08;8.40;99.90
47604;DHT22;33326;51.116;6.900;2022-11-20T21:06:12;8.40;99.90
47604;DHT22;33326;51.116;6.900;2022-11-20T21:11:15;8.40;99.90
47604;DHT22;33326;51.116;6.900;2022-11-20T21:16:18;8.40;99.90
47604;DHT22;33326;51.116;6.900;2022-11-20T21:21:23;8.40;99.90
47604;DHT22;33326;51.116;6.900;2022-11-20T21:26:42;8.40;99.90
47604;DHT22;33326;51.116;6.900;2022-11-20T21:31:44;8.30;99.90
47604;DHT22;33326;51.116;6.900;2022-11-20T21:36:47;8.30;99.90
47604;DHT22;33326;51.116;6.900;2022-11-20T21:41:49;8.30;99.90
47604;DHT22;33326;51.116;6.900;2022-11-20T21:46:50;8.20;99.90
47604;DHT22;33326;51.116;6.900;2022-11-20T21:51:53;8.20;99.90
47604;DHT22;33326;51.116;6.900;2022-11-20T21:56:55;8.20;99.90
47604;DHT22;33326;51.116;6.900;2022-11-20T22:01:57;8.10;99.90
47604;DHT22;33326;51.116;6.900;2022-11-20T22:07:00;8.10;99.90
47604;DHT22;33326;51.116;6.900;2022-11-20T22:12:03;8.10;99.90
47604;DHT22;33326;51.116;6.900;2022-11-20T22:17:05;8.00;99.90
47604;DHT22;33326;51.116;6.900;2022-11-20T22:22:13;7.90;99.90
47604;DHT22;33326;51.116;6.900;2022-11-20T22:27:15;7.90;99.90
47604;DHT22;33326;51.116;6.900;2022-11-20T22:32:17;7.90;99.90
47604;DHT22;33326;51.116;6.900;2022-11-20T22:37:20;7.90;99.90
47604;DHT22;33326;51.116;6.900;2022-11-20T22:42:22;7.90;99.90
47604;DHT22;33326;51.116;6.900;2022-11-20T22:47:24;7.90;99.90
47604;DHT22;33326;51.116;6.900;2022-11-20T22:52:27;7.80;99.90
47604;DHT22;33326;51.116;6.900;2022-11-20T22:57:28;7.90;99.90
47604;DHT22;33326;51.116;6.900;2022-11-20T23:02:31;7.90;99.90
47604;DHT22;33326;51.116;6.900;2022-11-20T23:07:34;7.90;99.90
47604;DHT22;33326;51.116;6.900;2022-11-20T23:12:36;7.80;99.90
47604;DHT22;33326;51.116;6.900;2022-11-20T23:17:38;7.80;99.90
47604;DHT22;33326;51.116;6.900;2022-11-20T23:22:41;7.80;99.90
47604;DHT22;33326;51.116;6.900;2022-11-20T23:27:43;7.80;99.90
47604;DHT22;33326;51.116;6.900;2022-11-20T23:32:45;7.80;99.90
47604;DHT22;33326;51.116;6.900;2022-11-20T23:37:48;7.80;99.90
47604;DHT22;33326;51.116;6.900;2022-11-20T23:42:50;7.80;99.90
47604;DHT22;33326;51.116;6.900;2022-11-20T23:48:15;7.80;99.90
47604;DHT22;33326;51.116;6.900;2022-11-20T23:53:19;7.80;99.90
47604;DHT22;33326;51.116;6.900;2022-11-20T23:58:25;7.80;99.90
